sensor_id;sensor_type;location;lat;lon;timestamp;pressure;altitude;pressure_sealevel;temperature;humidity
550;BME280;20066;48.764;9.176;2023-12-22T00:01:39;96967.06;;;8.96;76.19
550;BME280;20066;48.764;9.176;2023-12-22T00:04:07;96938.41;;;8.59;75.48
550;BME280;20066;48.764;9.176;2023-12-22T00:06:36;96933.94;;;9.63;72.71
550;BME280;20066;48.764;9.176;2023-12-22T00:09:04;96927.81;;;8.82;76.09
550;BME280;20066;48.764;9.176;2023-12-22T00:11:32;96926.69;;;9.10;75.81
550;BME280;20066;48.764;9.176;2023-12-22T00:14:00;96942.94;;;9.76;73.95
550;BME280;20066;48.764;9.176;2023-12-22T00:16:28;96925.88;;;9.40;73.52
550;BME280;20066;48.764;9.176;2023-12-22T00:18:58;96926.31;;;9.08;77.66
550;BME280;20066;48.764;9.176;2023-12-22T00:21:26;96932.38;;;9.12;77.68
550;BME280;20066;48.764;9.176;2023-12-22T00:23:54;96919.88;;;9.28;76.79
550;BME280;20066;48.764;9.176;2023-12-22T00:26:23;96917.69;;;9.23;77.59
550;BME280;20066;48.764;9.176;2023-12-22T00:28:51;96907.16;;;9.09;77.98
550;BME280;20066;48.764;9.176;2023-12-22T00:31:19;96908.00;;;9.29;76.86
550;BME280;20066;48.764;9.176;2023-12-22T00:33:47;96929.09;;;9.78;74.91
550;BME280;20066;48.764;9.176;2023-12-22T00:36:17;96923.28;;;9.33;75.22
550;BME280;20066;48.764;9.176;2023-12-22T00:38:49;96929.94;;;9.24;74.63
550;BME280;20066;48.764;9.176;2023-12-22T00:41:17;96975.63;;;9.71;71.98
550;BME280;20066;48.764;9.176;2023-12-22T00:43:45;97001.91;;;9.29;74.12
550;BME280;20066;48.764;9.176;2023-12-22T00:46:13;97006.66;;;9.45;75.25
550;BME280;20066;48.764;9.176;2023-12-22T00:48:41;96994.25;;;8.64;79.78
550;BME280;20066;48.764;9.176;2023-12-22T00:51:09;97017.94;;;8.28;81.61
550;BME280;20066;48.764;9.176;2023-12-22T00:53:38;97006.13;;;9.00;80.03
550;BME280;20066;48.764;9.176;2023-12-22T00:56:06;96991.75;;;8.46;82.22
550;BME280;20066;48.764;9.176;2023-12-22T00:58:34;97001.53;;;8.63;80.77
550;BME280;20066;48.764;9.176;2023-12-22T01:01:02;96999.09;;;8.79;79.04
550;BME280;20066;48.764;9.176;2023-12-22T01:03:30;97000.75;;;9.00;77.88
550;BME280;20066;48.764;9.176;2023-12-22T01:05:58;96997.88;;;9.72;75.75
550;BME280;20066;48.764;9.176;2023-12-22T01:08:27;96985.91;;;9.76;76.07
550;BME280;20066;48.764;9.176;2023-12-22T01:10:56;96973.44;;;9.09;75.72
550;BME280;20066;48.764;9.176;2023-12-22T01:13:24;96977.09;;;9.22;76.47
550;BME280;20066;48.764;9.176;2023-12-22T01:15:52;96962.94;;;9.48;74.59
550;BME280;20066;48.764;9.176;2023-12-22T01:18:20;96971.56;;;9.59;74.20
550;BME280;20066;48.764;9.176;2023-12-22T01:20:49;96969.78;;;8.62;76.60
550;BME280;20066;48.764;9.176;2023-12-22T01:23:17;96961.63;;;9.33;73.31
550;BME280;20066;48.764;9.176;2023-12-22T01:25:45;96973.47;;;9.62;72.04
550;BME280;20066;48.764;9.176;2023-12-22T01:28:15;96961.03;;;8.88;72.93
550;BME280;20066;48.764;9.176;2023-12-22T01:30:43;96964.88;;;9.71;71.04
550;BME280;20066;48.764;9.176;2023-12-22T01:33:11;96966.94;;;9.06;73.04
550;BME280;20066;48.764;9.176;2023-12-22T01:35:39;96946.81;;;8.95;71.56
550;BME280;20066;48.764;9.176;2023-12-22T01:38:07;96970.28;;;9.17;71.05
550;BME280;20066;48.764;9.176;2023-12-22T01:40:35;96974.38;;;8.95;70.76
550;BME280;20066;48.764;9.176;2023-12-22T01:43:04;97005.13;;;9.48;69.98
550;BME280;20066;48.764;9.176;2023-12-22T01:45:34;96987.44;;;8.93;68.93
550;BME280;20066;48.764;9.176;2023-12-22T01:48:03;96991.66;;;8.90;68.33
550;BME280;20066;48.764;9.176;2023-12-22T01:50:31;97003.00;;;8.71;66.16
550;BME280;20066;48.764;9.176;2023-12-22T01:52:59;96996.81;;;9.08;65.83
550;BME280;20066;48.764;9.176;2023-12-22T01:55:27;96994.63;;;9.00;65.67
550;BME280;20066;48.764;9.176;2023-12-22T01:57:56;96996.53;;;8.99;66.45
550;BME280;20066;48.764;9.176;2023-12-22T02:00:24;97016.25;;;9.46;65.66
550;BME280;20066;48.764;9.176;2023-12-22T02:02:54;97021.97;;;8.87;66.82
550;BME280;20066;48.764;9.176;2023-12-22T02:05:22;97019.63;;;9.23;65.74
550;BME280;20066;48.764;9.176;2023-12-22T02:07:50;97006.06;;;9.04;65.73
550;BME280;20066;48.764;9.176;2023-12-22T02:10:18;97008.66;;;9.11;65.62
550;BME280;20066;48.764;9.176;2023-12-22T02:12:46;97003.66;;;9.13;65.12
550;BME280;20066;48.764;9.176;2023-12-22T02:15:15;97004.47;;;9.10;65.74
550;BME280;20066;48.764;9.176;2023-12-22T02:17:48;97005.72;;;9.02;65.67
550;BME280;20066;48.764;9.176;2023-12-22T02:20:21;97027.56;;;9.00;66.03
550;BME280;20066;48.764;9.176;2023-12-22T02:22:52;97009.19;;;8.99;66.09
550;BME280;20066;48.764;9.176;2023-12-22T02:25:21;97016.34;;;8.75;65.81
550;BME280;20066;48.764;9.176;2023-12-22T02:27:50;97018.78;;;8.59;66.27
550;BME280;20066;48.764;9.176;2023-12-22T02:30:24;97017.31;;;8.91;65.51
550;BME280;20066;48.764;9.176;2023-12-22T02:32:56;97027.91;;;8.68;66.04
550;BME280;20066;48.764;9.176;2023-12-22T02:35:28;97026.91;;;8.89;64.69
550;BME280;20066;48.764;9.176;2023-12-22T02:37:59;97026.16;;;8.88;64.10
550;BME280;20066;48.764;9.176;2023-12-22T02:40:29;97031.72;;;8.30;65.32
550;BME280;20066;48.764;9.176;2023-12-22T02:42:57;97033.59;;;9.08;63.30
550;BME280;20066;48.764;9.176;2023-12-22T02:45:26;97021.53;;;8.55;64.87
550;BME280;20066;48.764;9.176;2023-12-22T02:47:54;97020.69;;;9.29;63.71
550;BME280;20066;48.764;9.176;2023-12-22T02:50:22;97014.06;;;8.73;64.56
550;BME280;20066;48.764;9.176;2023-12-22T02:52:50;97012.38;;;9.20;63.03
550;BME280;20066;48.764;9.176;2023-12-22T02:55:20;96986.19;;;9.28;62.80
550;BME280;20066;48.764;9.176;2023-12-22T02:57:48;97012.06;;;8.81;63.80
550;BME280;20066;48.764;9.176;2023-12-22T03:00:16;97020.09;;;8.84;63.36
550;BME280;20066;48.764;9.176;2023-12-22T03:02:45;97016.47;;;8.61;64.40
550;BME280;20066;48.764;9.176;2023-12-22T03:05:13;97004.00;;;8.84;63.85
550;BME280;20066;48.764;9.176;2023-12-22T03:07:41;97009.78;;;9.13;63.20
550;BME280;20066;48.764;9.176;2023-12-22T03:10:09;96988.81;;;9.05;64.01
550;BME280;20066;48.764;9.176;2023-12-22T03:12:38;96991.88;;;8.73;64.89
550;BME280;20066;48.764;9.176;2023-12-22T03:15:07;97001.78;;;8.76;64.58
550;BME280;20066;48.764;9.176;2023-12-22T03:17:35;96998.03;;;8.66;64.42
550;BME280;20066;48.764;9.176;2023-12-22T03:20:04;97009.09;;;9.06;63.66
550;BME280;20066;48.764;9.176;2023-12-22T03:22:32;96994.31;;;8.94;62.99
550;BME280;20066;48.764;9.176;2023-12-22T03:25:00;97011.97;;;8.91;62.77
550;BME280;20066;48.764;9.176;2023-12-22T03:27:28;97012.53;;;9.10;61.78
550;BME280;20066;48.764;9.176;2023-12-22T03:29:58;97007.00;;;9.20;62.06
550;BME280;20066;48.764;9.176;2023-12-22T03:32:26;97014.56;;;9.29;61.54
550;BME280;20066;48.764;9.176;2023-12-22T03:34:54;97015.19;;;8.76;62.27
550;BME280;20066;48.764;9.176;2023-12-22T03:37:22;97033.81;;;9.51;60.56
550;BME280;20066;48.764;9.176;2023-12-22T03:39:50;97019.31;;;9.18;60.96
550;BME280;20066;48.764;9.176;2023-12-22T03:42:19;97034.28;;;9.15;61.20
550;BME280;20066;48.764;9.176;2023-12-22T03:44:48;97039.66;;;9.42;60.35
550;BME280;20066;48.764;9.176;2023-12-22T03:47:17;97044.28;;;9.42;60.24
550;BME280;20066;48.764;9.176;2023-12-22T03:49:45;97038.47;;;9.47;60.93
550;BME280;20066;48.764;9.176;2023-12-22T03:52:14;97053.34;;;9.24;61.68
550;BME280;20066;48.764;9.176;2023-12-22T03:54:42;97073.63;;;8.91;61.88
550;BME280;20066;48.764;9.176;2023-12-22T03:57:10;97052.56;;;9.24;62.22
550;BME280;20066;48.764;9.176;2023-12-22T03:59:38;97050.25;;;8.92;66.25
550;BME280;20066;48.764;9.176;2023-12-22T04:02:06;97018.84;;;8.93;67.69
550;BME280;20066;48.764;9.176;2023-12-22T04:04:38;97016.75;;;9.07;68.34
550;BME280;20066;48.764;9.176;2023-12-22T04:07:06;97035.94;;;9.36;66.99
550;BME280;20066;48.764;9.176;2023-12-22T04:09:36;97038.72;;;8.58;69.39
550;BME280;20066;48.764;9.176;2023-12-22T04:12:05;97051.09;;;8.44;70.73
550;BME280;20066;48.764;9.176;2023-12-22T04:14:34;97069.84;;;8.44;70.25
550;BME280;20066;48.764;9.176;2023-12-22T04:17:01;97049.31;;;8.27;73.19
550;BME280;20066;48.764;9.176;2023-12-22T04:19:30;97080.19;;;8.42;74.63
550;BME280;20066;48.764;9.176;2023-12-22T04:21:59;97039.41;;;8.24;73.85
550;BME280;20066;48.764;9.176;2023-12-22T04:24:27;97035.53;;;8.32;74.04
550;BME280;20066;48.764;9.176;2023-12-22T04:26:55;97036.25;;;8.36;74.12
550;BME280;20066;48.764;9.176;2023-12-22T04:29:23;97060.88;;;8.21;73.92
550;BME280;20066;48.764;9.176;2023-12-22T04:31:51;97065.28;;;7.93;74.58
550;BME280;20066;48.764;9.176;2023-12-22T04:34:19;97053.06;;;7.89;73.66
550;BME280;20066;48.764;9.176;2023-12-22T04:36:47;97063.25;;;8.56;71.44
550;BME280;20066;48.764;9.176;2023-12-22T04:39:16;97064.31;;;8.21;71.63
550;BME280;20066;48.764;9.176;2023-12-22T04:41:44;97063.06;;;8.33;70.00
550;BME280;20066;48.764;9.176;2023-12-22T04:44:12;97059.22;;;8.34;68.95
550;BME280;20066;48.764;9.176;2023-12-22T04:46:40;97074.09;;;8.83;66.94
550;BME280;20066;48.764;9.176;2023-12-22T04:49:09;97074.75;;;8.53;67.69
550;BME280;20066;48.764;9.176;2023-12-22T04:51:37;97051.88;;;8.86;66.28
550;BME280;20066;48.764;9.176;2023-12-22T04:54:05;97061.16;;;8.74;66.21
550;BME280;20066;48.764;9.176;2023-12-22T04:56:35;97054.41;;;8.59;66.97
550;BME280;20066;48.764;9.176;2023-12-22T04:59:03;97061.97;;;8.71;64.82
550;BME280;20066;48.764;9.176;2023-12-22T05:01:31;97068.94;;;8.99;63.64
550;BME280;20066;48.764;9.176;2023-12-22T05:03:59;97075.00;;;8.69;65.36
550;BME280;20066;48.764;9.176;2023-12-22T05:06:28;97083.03;;;9.07;63.24
550;BME280;20066;48.764;9.176;2023-12-22T05:08:56;97086.13;;;9.39;63.10
550;BME280;20066;48.764;9.176;2023-12-22T05:11:24;97071.94;;;8.71;64.42
550;BME280;20066;48.764;9.176;2023-12-22T05:13:54;97073.09;;;8.66;64.06
550;BME280;20066;48.764;9.176;2023-12-22T05:16:23;97087.63;;;9.40;62.74
550;BME280;20066;48.764;9.176;2023-12-22T05:18:51;97062.53;;;8.89;63.07
550;BME280;20066;48.764;9.176;2023-12-22T05:21:19;97102.69;;;8.97;63.34
550;BME280;20066;48.764;9.176;2023-12-22T05:23:48;97095.44;;;8.94;63.62
550;BME280;20066;48.764;9.176;2023-12-22T05:26:17;97107.94;;;8.70;63.57
550;BME280;20066;48.764;9.176;2023-12-22T05:28:45;97123.34;;;9.00;63.19
550;BME280;20066;48.764;9.176;2023-12-22T05:31:15;97121.94;;;9.25;62.34
550;BME280;20066;48.764;9.176;2023-12-22T05:33:43;97113.00;;;8.98;63.00
550;BME280;20066;48.764;9.176;2023-12-22T05:36:11;97131.84;;;8.95;64.89
550;BME280;20066;48.764;9.176;2023-12-22T05:38:40;97094.97;;;8.58;65.43
550;BME280;20066;48.764;9.176;2023-12-22T05:41:07;97133.44;;;8.85;66.73
550;BME280;20066;48.764;9.176;2023-12-22T05:43:35;97116.53;;;8.43;67.94
550;BME280;20066;48.764;9.176;2023-12-22T05:46:03;97133.41;;;8.88;66.48
550;BME280;20066;48.764;9.176;2023-12-22T05:48:33;97133.75;;;8.94;65.01
550;BME280;20066;48.764;9.176;2023-12-22T05:51:01;97126.00;;;8.59;65.50
550;BME280;20066;48.764;9.176;2023-12-22T05:53:34;97119.31;;;9.18;63.28
550;BME280;20066;48.764;9.176;2023-12-22T05:56:01;97135.31;;;8.91;64.34
550;BME280;20066;48.764;9.176;2023-12-22T05:58:29;97142.50;;;9.36;63.15
550;BME280;20066;48.764;9.176;2023-12-22T06:00:57;97140.09;;;9.45;62.52
550;BME280;20066;48.764;9.176;2023-12-22T06:03:25;97148.97;;;9.72;61.04
550;BME280;20066;48.764;9.176;2023-12-22T06:05:54;97149.94;;;9.21;62.31
550;BME280;20066;48.764;9.176;2023-12-22T06:08:22;97147.66;;;9.53;61.25
550;BME280;20066;48.764;9.176;2023-12-22T06:10:50;97198.81;;;9.02;61.71
550;BME280;20066;48.764;9.176;2023-12-22T06:13:18;97150.13;;;9.41;60.58
550;BME280;20066;48.764;9.176;2023-12-22T06:15:46;97162.16;;;9.25;61.00
550;BME280;20066;48.764;9.176;2023-12-22T06:18:14;97151.69;;;9.01;61.50
550;BME280;20066;48.764;9.176;2023-12-22T06:20:42;97168.00;;;9.17;60.99
550;BME280;20066;48.764;9.176;2023-12-22T06:23:11;97144.56;;;9.24;61.82
550;BME280;20066;48.764;9.176;2023-12-22T06:25:39;97183.81;;;9.08;61.89
550;BME280;20066;48.764;9.176;2023-12-22T06:28:07;97173.06;;;9.45;60.92
550;BME280;20066;48.764;9.176;2023-12-22T06:30:35;97186.78;;;9.54;61.31
550;BME280;20066;48.764;9.176;2023-12-22T06:33:03;97201.09;;;9.41;60.80
550;BME280;20066;48.764;9.176;2023-12-22T06:35:31;97201.31;;;9.19;61.64
550;BME280;20066;48.764;9.176;2023-12-22T06:38:00;97201.06;;;9.07;62.26
550;BME280;20066;48.764;9.176;2023-12-22T06:40:32;97209.88;;;9.45;61.40
550;BME280;20066;48.764;9.176;2023-12-22T06:43:00;97204.06;;;9.50;61.15
550;BME280;20066;48.764;9.176;2023-12-22T06:45:31;97205.28;;;9.45;60.98
550;BME280;20066;48.764;9.176;2023-12-22T06:48:04;97199.06;;;8.66;62.37
550;BME280;20066;48.764;9.176;2023-12-22T06:50:33;97212.91;;;9.09;61.49
550;BME280;20066;48.764;9.176;2023-12-22T06:53:04;97206.69;;;9.57;60.51
550;BME280;20066;48.764;9.176;2023-12-22T06:55:45;97209.81;;;9.11;61.04
550;BME280;20066;48.764;9.176;2023-12-22T06:58:13;97222.59;;;9.37;60.34
550;BME280;20066;48.764;9.176;2023-12-22T07:00:41;97222.91;;;9.46;60.86
550;BME280;20066;48.764;9.176;2023-12-22T07:03:09;97236.25;;;9.50;59.55
550;BME280;20066;48.764;9.176;2023-12-22T07:05:39;97226.28;;;9.13;62.51
550;BME280;20066;48.764;9.176;2023-12-22T07:08:07;97236.56;;;9.59;60.93
550;BME280;20066;48.764;9.176;2023-12-22T07:10:35;97244.50;;;9.69;61.41
550;BME280;20066;48.764;9.176;2023-12-22T07:13:21;97236.03;;;9.37;62.12
550;BME280;20066;48.764;9.176;2023-12-22T07:15:54;97249.28;;;9.14;63.29
550;BME280;20066;48.764;9.176;2023-12-22T07:18:30;97241.13;;;9.62;62.76
550;BME280;20066;48.764;9.176;2023-12-22T07:21:00;97253.13;;;9.50;63.00
550;BME280;20066;48.764;9.176;2023-12-22T07:23:29;97258.75;;;9.25;63.89
550;BME280;20066;48.764;9.176;2023-12-22T07:25:57;97245.88;;;9.06;65.25
550;BME280;20066;48.764;9.176;2023-12-22T07:28:28;97240.38;;;9.61;63.44
550;BME280;20066;48.764;9.176;2023-12-22T07:31:06;97257.16;;;9.32;65.31
550;BME280;20066;48.764;9.176;2023-12-22T07:33:36;97262.19;;;8.78;66.62
550;BME280;20066;48.764;9.176;2023-12-22T07:36:09;97267.03;;;8.97;66.69
550;BME280;20066;48.764;9.176;2023-12-22T07:38:45;97263.78;;;8.68;66.63
550;BME280;20066;48.764;9.176;2023-12-22T07:41:13;97277.69;;;9.08;65.50
550;BME280;20066;48.764;9.176;2023-12-22T07:43:46;97259.22;;;8.62;67.40
550;BME280;20066;48.764;9.176;2023-12-22T07:46:17;97271.81;;;9.23;65.78
550;BME280;20066;48.764;9.176;2023-12-22T07:48:51;97265.63;;;9.26;65.54
550;BME280;20066;48.764;9.176;2023-12-22T07:51:22;97268.81;;;9.55;63.98
550;BME280;20066;48.764;9.176;2023-12-22T07:53:54;97256.19;;;9.52;65.50
550;BME280;20066;48.764;9.176;2023-12-22T07:56:27;97249.34;;;9.03;67.06
550;BME280;20066;48.764;9.176;2023-12-22T07:59:06;97255.09;;;8.43;70.33
550;BME280;20066;48.764;9.176;2023-12-22T08:01:52;97253.78;;;9.24;68.69
550;BME280;20066;48.764;9.176;2023-12-22T08:04:35;97252.50;;;8.95;69.89
550;BME280;20066;48.764;9.176;2023-12-22T08:07:05;97261.50;;;8.60;71.94
550;BME280;20066;48.764;9.176;2023-12-22T08:09:35;97242.38;;;8.61;72.90
550;BME280;20066;48.764;9.176;2023-12-22T08:12:05;97244.00;;;8.44;74.07
550;BME280;20066;48.764;9.176;2023-12-22T08:14:36;97253.69;;;8.90;72.96
550;BME280;20066;48.764;9.176;2023-12-22T08:17:11;97265.59;;;8.82;72.38
550;BME280;20066;48.764;9.176;2023-12-22T08:19:41;97265.09;;;9.01;73.13
550;BME280;20066;48.764;9.176;2023-12-22T08:22:15;97259.16;;;8.76;75.26
550;BME280;20066;48.764;9.176;2023-12-22T08:24:49;97252.13;;;8.93;75.53
550;BME280;20066;48.764;9.176;2023-12-22T08:27:18;97272.06;;;8.88;75.57
550;BME280;20066;48.764;9.176;2023-12-22T08:29:51;97271.69;;;8.89;76.95
550;BME280;20066;48.764;9.176;2023-12-22T08:32:20;97261.31;;;8.33;77.65
550;BME280;20066;48.764;9.176;2023-12-22T08:34:54;97258.59;;;8.40;76.97
550;BME280;20066;48.764;9.176;2023-12-22T08:37:22;97264.09;;;8.04;77.94
550;BME280;20066;48.764;9.176;2023-12-22T08:39:52;97259.69;;;8.46;77.32
550;BME280;20066;48.764;9.176;2023-12-22T08:42:21;97274.53;;;8.58;75.90
550;BME280;20066;48.764;9.176;2023-12-22T08:44:56;97262.88;;;8.23;75.37
550;BME280;20066;48.764;9.176;2023-12-22T08:47:39;97282.91;;;8.74;75.65
550;BME280;20066;48.764;9.176;2023-12-22T08:50:09;97276.06;;;8.59;75.00
550;BME280;20066;48.764;9.176;2023-12-22T08:52:40;97272.59;;;8.69;73.68
550;BME280;20066;48.764;9.176;2023-12-22T08:55:23;97261.69;;;8.94;73.05
550;BME280;20066;48.764;9.176;2023-12-22T08:57:51;97262.34;;;8.49;73.91
550;BME280;20066;48.764;9.176;2023-12-22T09:00:32;97263.19;;;8.98;72.27
550;BME280;20066;48.764;9.176;2023-12-22T09:03:03;97280.09;;;8.88;72.16
550;BME280;20066;48.764;9.176;2023-12-22T09:05:32;97283.31;;;9.20;70.82
550;BME280;20066;48.764;9.176;2023-12-22T09:08:01;97287.69;;;8.38;73.26
550;BME280;20066;48.764;9.176;2023-12-22T09:10:29;97290.88;;;8.81;71.94
550;BME280;20066;48.764;9.176;2023-12-22T09:12:59;97285.53;;;8.81;71.14
550;BME280;20066;48.764;9.176;2023-12-22T09:15:30;97303.09;;;8.89;70.58
550;BME280;20066;48.764;9.176;2023-12-22T09:18:00;97306.00;;;9.12;68.84
550;BME280;20066;48.764;9.176;2023-12-22T09:20:31;97294.53;;;9.08;69.18
550;BME280;20066;48.764;9.176;2023-12-22T09:23:14;97294.09;;;9.58;67.06
550;BME280;20066;48.764;9.176;2023-12-22T09:25:46;97300.72;;;8.98;68.14
550;BME280;20066;48.764;9.176;2023-12-22T09:28:15;97292.78;;;9.73;65.86
550;BME280;20066;48.764;9.176;2023-12-22T09:31:07;97303.13;;;8.85;67.04
550;BME280;20066;48.764;9.176;2023-12-22T09:33:43;97292.00;;;9.76;65.09
550;BME280;20066;48.764;9.176;2023-12-22T09:36:19;97309.66;;;9.74;64.20
550;BME280;20066;48.764;9.176;2023-12-22T09:38:48;97303.03;;;9.44;64.59
550;BME280;20066;48.764;9.176;2023-12-22T09:41:18;97311.59;;;9.32;64.45
550;BME280;20066;48.764;9.176;2023-12-22T09:43:50;97314.06;;;9.57;63.91
550;BME280;20066;48.764;9.176;2023-12-22T09:46:26;97323.38;;;9.83;63.65
550;BME280;20066;48.764;9.176;2023-12-22T09:48:59;97333.50;;;9.23;64.89
550;BME280;20066;48.764;9.176;2023-12-22T09:51:33;97325.00;;;9.73;63.11
550;BME280;20066;48.764;9.176;2023-12-22T09:54:04;97321.41;;;9.49;63.89
550;BME280;20066;48.764;9.176;2023-12-22T09:56:37;97318.94;;;9.65;63.84
550;BME280;20066;48.764;9.176;2023-12-22T09:59:11;97321.81;;;9.48;64.30
550;BME280;20066;48.764;9.176;2023-12-22T10:01:45;97317.63;;;8.95;65.02
550;BME280;20066;48.764;9.176;2023-12-22T10:04:22;97337.88;;;9.51;63.79
550;BME280;20066;48.764;9.176;2023-12-22T10:06:56;97325.16;;;9.59;62.87
550;BME280;20066;48.764;9.176;2023-12-22T10:09:32;97312.25;;;9.43;63.35
550;BME280;20066;48.764;9.176;2023-12-22T10:12:01;97320.00;;;9.34;63.86
550;BME280;20066;48.764;9.176;2023-12-22T10:14:32;97313.16;;;9.71;62.07
550;BME280;20066;48.764;9.176;2023-12-22T10:17:16;97292.16;;;9.62;63.43
550;BME280;20066;48.764;9.176;2023-12-22T10:19:51;97280.31;;;9.93;62.00
550;BME280;20066;48.764;9.176;2023-12-22T10:22:19;97258.81;;;9.18;63.38
550;BME280;20066;48.764;9.176;2023-12-22T10:25:04;97274.59;;;9.54;62.30
550;BME280;20066;48.764;9.176;2023-12-22T10:27:36;97271.59;;;9.45;63.02
550;BME280;20066;48.764;9.176;2023-12-22T10:30:12;97261.13;;;9.16;63.71
550;BME280;20066;48.764;9.176;2023-12-22T10:33:09;97249.59;;;9.60;62.43
550;BME280;20066;48.764;9.176;2023-12-22T10:35:42;97258.00;;;9.25;63.91
550;BME280;20066;48.764;9.176;2023-12-22T10:38:18;97256.09;;;9.63;62.26
550;BME280;20066;48.764;9.176;2023-12-22T10:40:50;97246.59;;;10.19;61.51
550;BME280;20066;48.764;9.176;2023-12-22T10:43:19;97234.56;;;10.00;62.62
550;BME280;20066;48.764;9.176;2023-12-22T10:45:53;97227.16;;;9.78;63.11
550;BME280;20066;48.764;9.176;2023-12-22T10:48:27;97226.00;;;10.09;62.97
550;BME280;20066;48.764;9.176;2023-12-22T10:50:59;97217.94;;;9.45;64.38
550;BME280;20066;48.764;9.176;2023-12-22T10:53:32;97211.25;;;9.22;65.57
550;BME280;20066;48.764;9.176;2023-12-22T10:56:02;97218.38;;;9.40;65.63
550;BME280;20066;48.764;9.176;2023-12-22T10:58:46;97217.53;;;9.46;66.30
550;BME280;20066;48.764;9.176;2023-12-22T11:01:29;97213.31;;;9.08;67.70
550;BME280;20066;48.764;9.176;2023-12-22T11:04:05;97213.41;;;9.72;66.07
550;BME280;20066;48.764;9.176;2023-12-22T11:06:37;97217.34;;;9.26;68.03
550;BME280;20066;48.764;9.176;2023-12-22T11:09:11;97218.69;;;9.45;67.79
550;BME280;20066;48.764;9.176;2023-12-22T11:11:46;97205.00;;;9.70;67.58
550;BME280;20066;48.764;9.176;2023-12-22T11:14:19;97189.81;;;9.19;68.75
550;BME280;20066;48.764;9.176;2023-12-22T11:16:56;97201.31;;;9.19;70.11
550;BME280;20066;48.764;9.176;2023-12-22T11:19:33;97201.19;;;8.93;71.84
550;BME280;20066;48.764;9.176;2023-12-22T11:22:06;97212.25;;;9.36;71.82
550;BME280;20066;48.764;9.176;2023-12-22T11:24:47;97198.19;;;8.87;72.95
550;BME280;20066;48.764;9.176;2023-12-22T11:27:20;97198.00;;;9.05;72.79
550;BME280;20066;48.764;9.176;2023-12-22T11:30:02;97198.06;;;8.98;73.58
550;BME280;20066;48.764;9.176;2023-12-22T11:32:39;97199.38;;;9.23;73.34
550;BME280;20066;48.764;9.176;2023-12-22T11:35:10;97188.72;;;9.13;74.08
550;BME280;20066;48.764;9.176;2023-12-22T11:37:42;97184.47;;;9.53;73.27
550;BME280;20066;48.764;9.176;2023-12-22T11:48:06;97177.03;;;8.44;78.08
550;BME280;20066;48.764;9.176;2023-12-22T11:50:36;97165.34;;;8.72;77.67
550;BME280;20066;48.764;9.176;2023-12-22T11:53:19;97157.06;;;8.97;77.35
550;BME280;20066;48.764;9.176;2023-12-22T11:55:58;97144.31;;;8.71;78.63
550;BME280;20066;48.764;9.176;2023-12-22T11:58:39;97142.06;;;8.62;78.93
550;BME280;20066;48.764;9.176;2023-12-22T12:01:08;97133.00;;;9.27;77.35
550;BME280;20066;48.764;9.176;2023-12-22T12:03:38;97129.78;;;8.68;78.81
550;BME280;20066;48.764;9.176;2023-12-22T12:06:32;97113.00;;;9.02;78.21
550;BME280;20066;48.764;9.176;2023-12-22T12:09:04;97118.53;;;8.84;77.55
550;BME280;20066;48.764;9.176;2023-12-22T12:12:09;97111.72;;;9.47;76.27
550;BME280;20066;48.764;9.176;2023-12-22T12:14:41;97115.28;;;8.59;77.83
550;BME280;20066;48.764;9.176;2023-12-22T12:17:10;97092.00;;;9.27;75.66
550;BME280;20066;48.764;9.176;2023-12-22T12:19:39;97096.81;;;8.71;77.39
550;BME280;20066;48.764;9.176;2023-12-22T12:22:11;97097.78;;;9.56;74.28
550;BME280;20066;48.764;9.176;2023-12-22T12:24:40;97091.88;;;9.68;74.14
550;BME280;20066;48.764;9.176;2023-12-22T12:27:08;97093.38;;;9.08;75.55
550;BME280;20066;48.764;9.176;2023-12-22T12:29:37;97077.75;;;8.59;78.08
550;BME280;20066;48.764;9.176;2023-12-22T12:32:06;97078.53;;;9.00;77.64
550;BME280;20066;48.764;9.176;2023-12-22T12:34:34;97072.78;;;8.16;80.40
550;BME280;20066;48.764;9.176;2023-12-22T12:37:03;97081.28;;;8.93;77.19
550;BME280;20066;48.764;9.176;2023-12-22T12:39:34;97070.16;;;8.50;78.05
550;BME280;20066;48.764;9.176;2023-12-22T12:42:06;97066.63;;;8.64;79.17
550;BME280;20066;48.764;9.176;2023-12-22T12:44:35;97072.03;;;8.57;79.23
550;BME280;20066;48.764;9.176;2023-12-22T12:47:12;97058.41;;;8.40;80.01
550;BME280;20066;48.764;9.176;2023-12-22T12:49:40;97065.72;;;8.36;80.86
550;BME280;20066;48.764;9.176;2023-12-22T12:52:12;97062.59;;;8.41;81.26
550;BME280;20066;48.764;9.176;2023-12-22T12:54:42;97070.84;;;9.02;78.52
550;BME280;20066;48.764;9.176;2023-12-22T12:57:14;97063.09;;;8.74;78.81
550;BME280;20066;48.764;9.176;2023-12-22T12:59:45;97070.69;;;8.38;80.58
550;BME280;20066;48.764;9.176;2023-12-22T13:02:14;97072.78;;;8.98;77.76
550;BME280;20066;48.764;9.176;2023-12-22T13:04:43;97073.66;;;8.47;79.09
550;BME280;20066;48.764;9.176;2023-12-22T13:07:11;97064.03;;;8.94;78.79
550;BME280;20066;48.764;9.176;2023-12-22T13:09:42;97068.63;;;8.52;79.73
550;BME280;20066;48.764;9.176;2023-12-22T13:12:11;97075.19;;;8.89;79.91
550;BME280;20066;48.764;9.176;2023-12-22T13:14:39;97065.78;;;8.29;81.13
550;BME280;20066;48.764;9.176;2023-12-22T13:17:08;97071.09;;;8.77;80.31
550;BME280;20066;48.764;9.176;2023-12-22T13:19:37;97069.03;;;8.92;79.21
550;BME280;20066;48.764;9.176;2023-12-22T13:22:06;97057.38;;;8.72;80.64
550;BME280;20066;48.764;9.176;2023-12-22T13:24:34;97062.09;;;9.28;78.91
550;BME280;20066;48.764;9.176;2023-12-22T13:27:05;97056.41;;;9.53;77.28
550;BME280;20066;48.764;9.176;2023-12-22T13:29:43;97057.47;;;8.99;80.75
550;BME280;20066;48.764;9.176;2023-12-22T13:32:20;97060.66;;;9.51;77.53
550;BME280;20066;48.764;9.176;2023-12-22T13:34:52;97062.66;;;10.00;76.10
550;BME280;20066;48.764;9.176;2023-12-22T13:37:20;97059.47;;;9.55;78.29
550;BME280;20066;48.764;9.176;2023-12-22T13:39:50;97053.75;;;9.19;79.56
550;BME280;20066;48.764;9.176;2023-12-22T13:42:20;97088.38;;;9.71;77.18
550;BME280;20066;48.764;9.176;2023-12-22T13:44:49;97078.47;;;9.95;76.13
550;BME280;20066;48.764;9.176;2023-12-22T13:47:19;97075.06;;;10.18;74.60
550;BME280;20066;48.764;9.176;2023-12-22T13:49:47;97087.63;;;9.97;75.80
550;BME280;20066;48.764;9.176;2023-12-22T13:52:24;97075.19;;;10.07;75.49
550;BME280;20066;48.764;9.176;2023-12-22T13:54:54;97076.84;;;10.01;75.66
550;BME280;20066;48.764;9.176;2023-12-22T13:57:27;97085.59;;;10.32;73.60
550;BME280;20066;48.764;9.176;2023-12-22T13:59:55;97094.03;;;10.34;73.56